createdAt,value
2023-03-27T00:00:32.416Z,99.90
2023-03-27T00:03:03.607Z,99.90
2023-03-27T00:05:37.118Z,99.90
2023-03-27T00:08:10.028Z,99.90
2023-03-27T00:10:42.431Z,99.90
2023-03-27T00:13:16.302Z,99.90
2023-03-27T00:15:46.958Z,99.90
2023-03-27T00:18:17.349Z,99.90
2023-03-27T00:20:51.959Z,99.90
2023-03-27T00:23:23.145Z,99.90
2023-03-27T00:25:53.962Z,99.90
2023-03-27T00:28:24.349Z,99.90
2023-03-27T00:30:54.941Z,99.90
2023-03-27T00:33:27.556Z,99.90
2023-03-27T00:36:00.801Z,99.90
2023-03-27T00:38:31.781Z,99.90
2023-03-27T00:41:03.257Z,99.90
2023-03-27T00:43:41.319Z,99.90
2023-03-27T00:46:31.777Z,99.90
2023-03-27T00:49:08.876Z,99.90
2023-03-27T00:51:46.811Z,99.90
2023-03-27T00:54:22.136Z,99.90
2023-03-27T00:56:53.036Z,99.90
2023-03-27T00:59:29.465Z,99.90
2023-03-27T01:02:01.960Z,99.90
2023-03-27T01:04:34.617Z,99.90
2023-03-27T01:07:11.600Z,99.90
2023-03-27T01:09:45.983Z,99.90
2023-03-27T01:12:37.685Z,99.90
2023-03-27T01:15:31.868Z,99.90
2023-03-27T01:18:30.926Z,99.90
2023-03-27T01:21:55.370Z,99.90
2023-03-27T01:25:08.257Z,99.90
2023-03-27T01:28:15.216Z,99.90
2023-03-27T01:30:56.827Z,99.90
2023-03-27T01:34:07.631Z,99.90
2023-03-27T01:37:11.766Z,99.90
2023-03-27T01:39:56.700Z,99.90
2023-03-27T01:42:39.630Z,99.90
2023-03-27T01:45:21.496Z,99.90
2023-03-27T01:48:03.233Z,99.90
2023-03-27T01:50:47.186Z,99.90
2023-03-27T01:53:23.759Z,99.90
2023-03-27T01:56:01.633Z,99.90
2023-03-27T01:58:40.031Z,99.90
2023-03-27T02:01:17.888Z,99.90
2023-03-27T02:03:55.024Z,99.90
2023-03-27T02:06:34.337Z,99.90
2023-03-27T02:09:11.617Z,99.90
2023-03-27T02:11:51.193Z,99.90
2023-03-27T02:14:27.237Z,99.90
2023-03-27T02:17:03.665Z,99.90
2023-03-27T02:19:41.096Z,99.90
2023-03-27T02:22:11.397Z,99.90
2023-03-27T02:24:41.717Z,99.90
2023-03-27T02:27:26.306Z,99.90
2023-03-27T02:30:11.087Z,99.90
2023-03-27T02:32:55.642Z,99.90
2023-03-27T02:35:43.157Z,99.90
2023-03-27T02:38:23.923Z,99.90
2023-03-27T02:41:09.288Z,99.90
2023-03-27T02:43:57.451Z,99.90
2023-03-27T02:46:38.667Z,99.90
2023-03-27T02:49:18.826Z,99.90
2023-03-27T02:51:58.430Z,99.90
2023-03-27T02:54:36.536Z,99.90
2023-03-27T02:57:13.246Z,99.90
2023-03-27T02:59:53.773Z,99.90
2023-03-27T03:02:35.089Z,99.90
2023-03-27T03:05:17.461Z,99.90
2023-03-27T03:07:48.120Z,99.90
2023-03-27T03:10:20.158Z,99.90
2023-03-27T03:12:50.414Z,99.90
2023-03-27T03:15:27.699Z,99.90
2023-03-27T03:17:58.011Z,99.90
2023-03-27T03:20:32.754Z,99.90
2023-03-27T03:23:04.871Z,99.90
2023-03-27T03:25:37.129Z,99.90
2023-03-27T03:28:10.749Z,99.90
2023-03-27T03:30:46.165Z,99.90
2023-03-27T03:33:16.991Z,99.90
2023-03-27T03:35:52.654Z,99.90
2023-03-27T03:38:26.672Z,99.90
2023-03-27T03:40:59.099Z,99.90
2023-03-27T03:43:33.386Z,99.90
2023-03-27T03:46:07.273Z,99.90
2023-03-27T03:48:37.512Z,99.90
2023-03-27T03:51:09.009Z,99.90
2023-03-27T03:53:39.424Z,99.90
2023-03-27T03:56:10.944Z,99.90
2023-03-27T03:58:41.343Z,99.90
2023-03-27T04:01:14.216Z,99.90
2023-03-27T04:03:45.117Z,99.90
2023-03-27T04:06:21.319Z,99.90
2023-03-27T04:08:53.938Z,99.90
2023-03-27T04:11:24.126Z,99.90
2023-03-27T04:13:54.496Z,99.90
2023-03-27T04:16:27.661Z,99.90
2023-03-27T04:18:58.167Z,99.90
2023-03-27T04:21:31.627Z,99.90
2023-03-27T04:24:03.005Z,99.90
2023-03-27T04:26:33.311Z,99.90
2023-03-27T04:29:10.939Z,99.90
2023-03-27T04:31:46.753Z,99.90
2023-03-27T04:34:20.820Z,99.90
2023-03-27T04:36:51.922Z,99.90
2023-03-27T04:39:23.425Z,99.90
2023-03-27T04:41:53.990Z,99.90
2023-03-27T04:44:24.362Z,99.90
2023-03-27T04:47:05.442Z,99.90
2023-03-27T04:49:42.516Z,99.90
2023-03-27T04:52:15.091Z,99.90
2023-03-27T04:54:45.412Z,99.90
2023-03-27T04:57:17.172Z,99.90
2023-03-27T04:59:48.094Z,99.90
2023-03-27T05:02:21.481Z,99.90
2023-03-27T05:04:51.792Z,99.90
2023-03-27T05:07:22.257Z,99.90
2023-03-27T05:09:52.556Z,99.90
2023-03-27T05:12:24.645Z,99.90
2023-03-27T05:14:54.919Z,99.90
2023-03-27T05:17:28.012Z,99.90
2023-03-27T05:20:08.285Z,99.90
2023-03-27T05:22:38.457Z,99.90
2023-03-27T05:25:12.217Z,99.90
2023-03-27T05:27:48.041Z,99.90
2023-03-27T05:30:21.123Z,99.90
2023-03-27T05:32:59.649Z,99.90
2023-03-27T05:35:30.851Z,99.90
2023-03-27T05:38:04.148Z,99.90
2023-03-27T05:40:34.877Z,99.90
2023-03-27T05:43:09.239Z,99.90
2023-03-27T05:45:39.488Z,99.90
2023-03-27T05:48:13.015Z,99.90
2023-03-27T05:50:43.304Z,99.90
2023-03-27T05:53:14.118Z,99.90
2023-03-27T05:55:44.633Z,99.90
2023-03-27T05:58:15.540Z,99.90
2023-03-27T06:00:47.029Z,99.90
2023-03-27T06:03:20.398Z,99.90
2023-03-27T06:05:50.792Z,99.90
2023-03-27T06:08:21.200Z,99.90
2023-03-27T06:10:51.732Z,99.90
2023-03-27T06:13:22.070Z,99.90
2023-03-27T06:15:52.527Z,99.90
2023-03-27T06:18:25.398Z,99.90
2023-03-27T06:20:55.842Z,99.90
2023-03-27T06:23:26.263Z,99.90
2023-03-27T06:25:56.865Z,99.90
2023-03-27T06:28:27.190Z,99.90
2023-03-27T06:30:57.998Z,99.90
2023-03-27T06:33:31.331Z,99.90
2023-03-27T06:36:03.056Z,99.90
2023-03-27T06:38:34.463Z,99.90
2023-03-27T06:41:05.045Z,99.90
2023-03-27T06:43:35.282Z,99.90
2023-03-27T06:46:05.543Z,99.90
2023-03-27T06:48:39.698Z,99.90
2023-03-27T06:51:10.402Z,99.90
2023-03-27T06:53:41.409Z,99.90
2023-03-27T06:56:12.590Z,99.90
2023-03-27T06:58:42.884Z,99.90
2023-03-27T07:01:13.691Z,99.90
2023-03-27T07:03:46.458Z,99.90
2023-03-27T07:06:17.136Z,99.90
2023-03-27T07:08:49.010Z,99.90
2023-03-27T07:11:19.517Z,99.90
2023-03-27T07:13:49.673Z,99.90
2023-03-27T07:16:20.065Z,99.90
2023-03-27T07:18:52.868Z,99.90
2023-03-27T07:21:23.093Z,99.90
2023-03-27T07:23:53.708Z,99.90
2023-03-27T07:26:24.636Z,99.90
2023-03-27T07:28:55.534Z,99.90
2023-03-27T07:31:41.833Z,99.90
2023-03-27T07:34:18.798Z,99.90
2023-03-27T07:36:50.809Z,99.90
2023-03-27T07:39:21.135Z,99.90
2023-03-27T07:41:51.989Z,99.90
2023-03-27T07:44:22.579Z,99.90
2023-03-27T07:46:52.948Z,99.90
2023-03-27T07:49:39.357Z,99.90
2023-03-27T07:52:11.667Z,99.90
2023-03-27T07:54:43.168Z,99.90
2023-03-27T07:57:14.116Z,99.90
2023-03-27T07:59:45.428Z,99.90
2023-03-27T08:02:16.005Z,99.90
2023-03-27T08:04:48.880Z,99.90
2023-03-27T08:07:21.794Z,99.90
2023-03-27T08:09:53.380Z,99.90
2023-03-27T08:12:23.604Z,99.90
2023-03-27T08:14:55.176Z,99.90
2023-03-27T08:17:27.988Z,99.90
2023-03-27T08:20:02.248Z,99.90
2023-03-27T08:22:32.492Z,99.90
2023-03-27T08:25:02.654Z,99.90
2023-03-27T08:27:33.277Z,99.90
2023-03-27T08:30:04.700Z,99.90
2023-03-27T08:32:34.988Z,99.90
2023-03-27T08:35:08.908Z,99.90
2023-03-27T08:37:39.562Z,99.90
2023-03-27T08:40:19.748Z,98.50
2023-03-27T08:42:55.444Z,20.80
2023-03-27T08:45:34.778Z,1.00
2023-03-27T08:48:15.979Z,1.00
2023-03-27T08:50:55.813Z,47.50
2023-03-27T08:53:39.825Z,99.90
2023-03-27T08:56:17.158Z,99.90
2023-03-27T08:58:49.266Z,99.90
2023-03-27T09:01:29.637Z,99.90
2023-03-27T09:04:13.315Z,89.10
2023-03-27T09:06:58.483Z,18.10
2023-03-27T09:12:44.064Z,1.00
2023-03-27T09:15:22.074Z,1.00
2023-03-27T09:18:00.326Z,1.00
2023-03-27T09:20:38.127Z,1.00
2023-03-27T09:23:20.945Z,1.00
2023-03-27T09:25:57.663Z,1.00
2023-03-27T09:28:38.158Z,70.10
2023-03-27T09:31:32.170Z,99.90
2023-03-27T09:34:11.305Z,99.90
2023-03-27T09:36:44.948Z,99.90
2023-03-27T09:39:24.157Z,99.90
2023-03-27T09:42:00.632Z,99.90
2023-03-27T09:44:42.999Z,99.90
2023-03-27T09:47:20.686Z,99.90
2023-03-27T09:49:58.245Z,99.90
2023-03-27T09:52:41.062Z,99.90
2023-03-27T09:55:38.774Z,99.90
2023-03-27T09:58:18.639Z,99.90
2023-03-27T10:00:52.217Z,87.80
2023-03-27T10:03:24.554Z,45.10
2023-03-27T10:06:10.435Z,13.80
2023-03-27T10:08:45.066Z,1.00
2023-03-27T10:11:26.147Z,1.00
2023-03-27T10:14:00.104Z,1.00
2023-03-27T10:16:32.540Z,99.90
2023-03-27T10:19:06.738Z,99.90
2023-03-27T10:21:43.127Z,1.00
2023-03-27T10:24:30.892Z,1.00
2023-03-27T10:27:12.275Z,1.00
2023-03-27T10:29:44.720Z,1.00
2023-03-27T10:32:20.202Z,1.00
2023-03-27T10:34:58.275Z,99.90
2023-03-27T10:37:36.660Z,99.90
2023-03-27T10:40:09.456Z,99.90
2023-03-27T10:42:42.388Z,1.00
2023-03-27T10:45:21.279Z,1.00
2023-03-27T10:47:56.598Z,1.00
2023-03-27T10:50:35.584Z,99.90
2023-03-27T10:53:18.968Z,99.90
2023-03-27T10:56:04.721Z,99.90
2023-03-27T10:58:47.339Z,1.00
2023-03-27T11:01:28.192Z,1.00
2023-03-27T11:04:07.386Z,1.00
2023-03-27T11:06:44.718Z,1.00
2023-03-27T11:09:24.210Z,99.90
2023-03-27T11:12:04.601Z,1.00
2023-03-27T11:14:51.266Z,30.30
2023-03-27T11:17:31.641Z,99.90
2023-03-27T11:20:11.408Z,99.90
2023-03-27T11:22:53.818Z,99.90
2023-03-27T11:25:38.213Z,1.00
2023-03-27T11:28:22.779Z,1.00
2023-03-27T11:31:11.930Z,1.00
2023-03-27T11:33:52.607Z,1.00
2023-03-27T11:36:40.472Z,99.90
2023-03-27T11:39:36.015Z,99.90
2023-03-27T11:42:19.380Z,99.90
2023-03-27T11:44:50.445Z,99.90
2023-03-27T11:47:52.084Z,99.90
2023-03-27T11:50:40.400Z,1.00
2023-03-27T11:53:52.773Z,19.20
2023-03-27T11:56:39.318Z,22.20
2023-03-27T11:59:32.487Z,85.40
2023-03-27T12:02:25.384Z,99.90
2023-03-27T12:05:06.030Z,1.00
2023-03-27T12:07:54.725Z,1.00
2023-03-27T12:10:34.926Z,1.00
2023-03-27T12:14:02.225Z,1.00
2023-03-27T12:17:09.430Z,1.00
2023-03-27T12:20:10.950Z,1.00
2023-03-27T12:22:54.593Z,99.90
2023-03-27T12:26:11.804Z,1.00
2023-03-27T12:29:04.164Z,1.00
2023-03-27T12:32:20.431Z,1.00
2023-03-27T12:34:59.652Z,1.00
2023-03-27T12:37:34.870Z,1.00
2023-03-27T12:40:29.595Z,1.00
2023-03-27T12:43:30.197Z,1.00
2023-03-27T12:46:39.098Z,99.90
2023-03-27T12:49:48.094Z,1.00
2023-03-27T12:52:20.402Z,99.90
2023-03-27T12:55:36.010Z,99.90
2023-03-27T12:58:08.382Z,1.00
2023-03-27T13:00:40.698Z,99.90
2023-03-27T13:03:45.668Z,99.90
2023-03-27T13:06:45.252Z,99.90
2023-03-27T13:09:49.459Z,99.10
2023-03-27T13:12:47.904Z,93.80
2023-03-27T13:15:49.184Z,13.40
2023-03-27T13:18:42.866Z,1.20
2023-03-27T13:21:36.244Z,1.00
2023-03-27T13:24:33.051Z,1.00
2023-03-27T13:27:26.551Z,1.00
2023-03-27T13:30:02.038Z,1.00
2023-03-27T13:32:40.032Z,1.00
2023-03-27T13:35:41.504Z,1.00
2023-03-27T13:38:14.775Z,1.00
2023-03-27T13:40:46.316Z,1.00
2023-03-27T13:43:27.208Z,1.00
2023-03-27T13:46:04.233Z,1.00
2023-03-27T13:49:18.959Z,1.00
2023-03-27T13:52:37.604Z,1.00
2023-03-27T13:56:03.294Z,1.00
2023-03-27T13:59:24.712Z,1.00
2023-03-27T14:02:31.436Z,1.00
2023-03-27T14:05:36.234Z,1.00
2023-03-27T14:08:30.404Z,99.90
2023-03-27T14:11:44.066Z,99.90
2023-03-27T14:14:40.169Z,99.90
2023-03-27T14:17:51.203Z,99.90
2023-03-27T14:20:32.046Z,99.90
2023-03-27T14:23:13.067Z,99.90
2023-03-27T14:25:50.005Z,99.90
2023-03-27T14:28:34.853Z,99.90
2023-03-27T14:31:16.754Z,99.90
2023-03-27T14:34:02.208Z,99.90
2023-03-27T14:36:36.042Z,99.90
2023-03-27T14:39:17.215Z,99.90
2023-03-27T14:41:56.550Z,99.90
2023-03-27T14:44:29.591Z,99.90
2023-03-27T14:47:08.512Z,99.90
2023-03-27T14:49:50.045Z,99.90
2023-03-27T14:52:35.759Z,62.90
2023-03-27T14:55:09.141Z,1.00
2023-03-27T14:57:44.821Z,1.00
2023-03-27T15:00:23.716Z,1.00
2023-03-27T15:02:57.385Z,1.00
2023-03-27T15:05:33.868Z,1.00
2023-03-27T15:08:05.384Z,1.00
2023-03-27T15:10:37.418Z,1.00
2023-03-27T15:13:08.047Z,1.00
2023-03-27T15:15:44.489Z,1.00
2023-03-27T15:18:22.718Z,1.00
2023-03-27T15:20:59.144Z,1.00
2023-03-27T15:23:36.994Z,1.00
2023-03-27T15:26:16.066Z,1.00
2023-03-27T15:29:03.868Z,1.00
2023-03-27T15:32:35.088Z,1.00
2023-03-27T15:36:35.599Z,1.00
2023-03-27T15:40:52.715Z,1.00
2023-03-27T15:44:01.632Z,9.30
2023-03-27T15:52:52.899Z,99.90
2023-03-27T15:55:44.123Z,99.90
2023-03-27T15:58:26.301Z,99.90
2023-03-27T16:01:18.625Z,76.70
2023-03-27T16:03:51.870Z,27.20
2023-03-27T16:06:34.401Z,49.80
2023-03-27T16:09:10.206Z,63.30
2023-03-27T16:11:49.715Z,59.30
2023-03-27T16:14:33.691Z,65.00
2023-03-27T16:17:26.739Z,99.90
2023-03-27T16:20:00.425Z,99.90
2023-03-27T16:22:33.282Z,99.90
2023-03-27T16:25:08.812Z,99.90
2023-03-27T16:27:47.243Z,99.90
2023-03-27T16:30:29.625Z,99.90
2023-03-27T16:33:00.032Z,99.90
2023-03-27T16:35:32.067Z,99.90
2023-03-27T16:38:02.955Z,99.90
2023-03-27T16:40:33.559Z,99.90
2023-03-27T16:43:07.717Z,99.90
2023-03-27T16:45:38.786Z,99.90
2023-03-27T16:48:09.247Z,99.90
2023-03-27T16:50:40.961Z,99.90
2023-03-27T16:53:11.318Z,99.90
2023-03-27T16:55:41.529Z,99.90
2023-03-27T16:58:14.506Z,99.90
2023-03-27T17:00:44.823Z,99.90
2023-03-27T17:03:15.093Z,99.90
2023-03-27T17:05:45.973Z,99.90
2023-03-27T17:08:17.060Z,99.90
2023-03-27T17:10:48.030Z,99.90
2023-03-27T17:13:21.361Z,99.90
2023-03-27T17:15:53.444Z,99.90
2023-03-27T17:18:23.714Z,99.90
2023-03-27T17:20:54.075Z,99.90
2023-03-27T17:23:25.245Z,99.90
2023-03-27T17:25:56.054Z,99.90
2023-03-27T17:28:32.241Z,99.90
2023-03-27T17:31:05.238Z,99.90
2023-03-27T17:33:36.626Z,99.90
2023-03-27T17:36:11.888Z,99.90
2023-03-27T17:38:43.770Z,99.90
2023-03-27T17:41:18.018Z,99.90
2023-03-27T17:43:52.893Z,99.90
2023-03-27T17:46:23.233Z,99.90
2023-03-27T17:48:53.775Z,99.90
2023-03-27T17:51:24.613Z,99.90
2023-03-27T17:53:55.008Z,99.90
2023-03-27T17:56:25.326Z,99.90
2023-03-27T17:58:58.244Z,99.90
2023-03-27T18:01:28.742Z,99.90
2023-03-27T18:04:03.205Z,99.90
2023-03-27T18:06:33.538Z,99.90
2023-03-27T18:09:08.031Z,99.90
2023-03-27T18:11:38.304Z,99.90
2023-03-27T18:14:11.193Z,99.90
2023-03-27T18:16:43.704Z,99.90
2023-03-27T18:19:15.121Z,99.90
2023-03-27T18:21:45.460Z,99.90
2023-03-27T18:24:15.883Z,99.90
2023-03-27T18:26:46.210Z,99.90
2023-03-27T18:29:21.319Z,99.90
2023-03-27T18:31:54.286Z,99.90
2023-03-27T18:34:24.558Z,99.90
2023-03-27T18:36:54.732Z,99.90
2023-03-27T18:39:25.874Z,99.90
2023-03-27T18:41:58.893Z,99.90
2023-03-27T18:44:31.805Z,99.90
2023-03-27T18:47:02.011Z,99.90
2023-03-27T18:49:32.256Z,99.90
2023-03-27T18:52:02.557Z,99.90
2023-03-27T18:54:32.723Z,99.90
2023-03-27T18:57:03.067Z,99.90
2023-03-27T18:59:35.982Z,99.90
2023-03-27T19:02:06.537Z,99.90
2023-03-27T19:04:36.750Z,99.90
2023-03-27T19:07:08.668Z,99.90
2023-03-27T19:09:41.736Z,99.90
2023-03-27T19:12:12.877Z,99.90
2023-03-27T19:14:46.250Z,99.90
2023-03-27T19:17:16.765Z,99.90
2023-03-27T19:19:47.235Z,99.90
2023-03-27T19:22:17.796Z,99.90
2023-03-27T19:24:48.045Z,99.90
2023-03-27T19:27:23.528Z,99.90
2023-03-27T19:29:57.507Z,99.90
2023-03-27T19:32:29.231Z,99.90
2023-03-27T19:35:02.169Z,99.90
2023-03-27T19:37:32.383Z,99.90
2023-03-27T19:40:03.226Z,99.90
2023-03-27T19:42:34.194Z,99.90
2023-03-27T19:45:08.852Z,99.90
2023-03-27T19:47:39.432Z,99.90
2023-03-27T19:50:12.088Z,99.90
2023-03-27T19:52:49.437Z,99.90
2023-03-27T19:55:25.965Z,99.90
2023-03-27T19:57:56.248Z,99.90
2023-03-27T20:00:31.272Z,99.90
2023-03-27T20:03:02.020Z,99.90
2023-03-27T20:05:32.306Z,99.90
2023-03-27T20:08:02.592Z,99.90
2023-03-27T20:10:33.232Z,99.90
2023-03-27T20:13:03.522Z,99.90
2023-03-27T20:15:36.822Z,99.90
2023-03-27T20:18:07.287Z,99.90
2023-03-27T20:20:41.748Z,99.90
2023-03-27T20:23:12.352Z,99.90
2023-03-27T20:25:42.665Z,99.90
2023-03-27T20:28:13.175Z,99.90
2023-03-27T20:30:46.069Z,99.90
2023-03-27T20:33:16.469Z,99.90
2023-03-27T20:35:47.221Z,99.90
2023-03-27T20:38:17.437Z,99.90
2023-03-27T20:40:53.167Z,99.90
2023-03-27T20:43:24.064Z,99.90
2023-03-27T20:45:59.312Z,99.90
2023-03-27T20:48:40.292Z,99.90
2023-03-27T20:51:14.872Z,99.90
2023-03-27T20:53:46.583Z,99.90
2023-03-27T20:56:17.210Z,99.90
2023-03-27T20:58:47.483Z,99.90
2023-03-27T21:01:27.997Z,99.90
2023-03-27T21:04:02.192Z,99.90
2023-03-27T21:06:32.584Z,99.90
2023-03-27T21:09:02.840Z,99.90
2023-03-27T21:11:33.151Z,99.90
2023-03-27T21:14:03.561Z,99.90
2023-03-27T21:16:37.853Z,99.90
2023-03-27T21:19:08.281Z,99.90
2023-03-27T21:21:38.634Z,99.90
2023-03-27T21:24:09.761Z,99.90
2023-03-27T21:26:42.412Z,99.90
2023-03-27T21:29:15.429Z,99.90
2023-03-27T21:31:48.388Z,99.90
2023-03-27T21:34:18.617Z,99.90
2023-03-27T21:36:48.867Z,99.90
2023-03-27T21:39:19.043Z,99.90
2023-03-27T21:41:49.294Z,99.90
2023-03-27T21:44:19.576Z,99.90
2023-03-27T21:46:52.372Z,99.90
2023-03-27T21:49:22.685Z,99.90
2023-03-27T21:51:52.903Z,99.90
2023-03-27T21:54:23.210Z,99.90
2023-03-27T21:56:53.443Z,99.90
2023-03-27T21:59:27.365Z,99.90
2023-03-27T22:02:00.193Z,99.90
2023-03-27T22:04:30.725Z,99.90
2023-03-27T22:07:01.049Z,99.90
2023-03-27T22:09:31.052Z,99.90
2023-03-27T22:12:01.322Z,99.90
2023-03-27T22:14:31.724Z,99.90
2023-03-27T22:17:04.751Z,99.90
2023-03-27T22:19:35.197Z,99.90
2023-03-27T22:22:05.496Z,99.90
2023-03-27T22:24:35.802Z,99.90
2023-03-27T22:27:06.118Z,99.90
2023-03-27T22:29:36.695Z,99.90
2023-03-27T22:32:14.911Z,99.90
2023-03-27T22:34:45.201Z,99.90
2023-03-27T22:37:15.514Z,99.90
2023-03-27T22:39:45.933Z,99.90
2023-03-27T22:42:16.606Z,99.90
2023-03-27T22:44:48.537Z,99.90
2023-03-27T22:47:22.681Z,99.90
2023-03-27T22:49:53.104Z,99.90
2023-03-27T22:52:23.405Z,99.90
2023-03-27T22:54:53.570Z,99.90
2023-03-27T22:57:23.806Z,99.90
2023-03-27T22:59:54.052Z,99.90
2023-03-27T23:02:27.034Z,99.90
2023-03-27T23:04:57.305Z,99.90
2023-03-27T23:07:27.597Z,99.90
2023-03-27T23:09:59.141Z,99.90
2023-03-27T23:12:29.352Z,99.90
2023-03-27T23:14:59.783Z,99.90
2023-03-27T23:17:32.531Z,99.90
2023-03-27T23:20:02.901Z,99.90
2023-03-27T23:22:33.076Z,99.90
2023-03-27T23:25:03.413Z,99.90
2023-03-27T23:27:33.653Z,99.90
2023-03-27T23:30:03.965Z,99.90
2023-03-27T23:32:38.030Z,99.90
2023-03-27T23:35:10.696Z,99.90
2023-03-27T23:37:41.214Z,99.90
2023-03-27T23:40:13.136Z,99.90
2023-03-27T23:42:43.337Z,99.90
2023-03-27T23:45:14.635Z,99.90
2023-03-27T23:47:47.475Z,99.90
2023-03-27T23:50:17.792Z,99.90
2023-03-27T23:52:48.220Z,99.90
2023-03-27T23:55:18.751Z,99.90
2023-03-27T23:57:48.906Z,99.90
